createdAt,value
2023-01-08T00:02:05.610Z,69.46
2023-01-08T00:04:33.353Z,69.54
2023-01-08T00:07:01.123Z,69.20
2023-01-08T00:09:28.850Z,69.20
2023-01-08T00:11:57.155Z,69.37
2023-01-08T00:14:24.904Z,69.21
2023-01-08T00:16:53.813Z,69.27
2023-01-08T00:19:22.984Z,69.35
2023-01-08T00:21:50.698Z,69.55
2023-01-08T00:24:18.475Z,69.33
2023-01-08T00:26:46.341Z,69.71
2023-01-08T00:29:14.151Z,69.76
2023-01-08T00:31:41.857Z,69.65
2023-01-08T00:34:09.698Z,69.62
2023-01-08T00:36:37.708Z,69.82
2023-01-08T00:39:05.527Z,69.93
2023-01-08T00:41:33.296Z,69.98
2023-01-08T00:44:01.008Z,69.76
2023-01-08T00:46:28.747Z,69.48
2023-01-08T00:48:56.647Z,69.59
2023-01-08T00:51:24.370Z,69.94
2023-01-08T00:53:52.154Z,70.04
2023-01-08T00:56:19.889Z,70.11
2023-01-08T00:58:47.607Z,70.02
2023-01-08T01:01:16.097Z,70.06
2023-01-08T01:03:44.256Z,69.95
2023-01-08T01:06:12.684Z,69.91
2023-01-08T01:08:41.213Z,70.04
2023-01-08T01:11:19.723Z,70.15
2023-01-08T01:13:48.210Z,69.99
2023-01-08T01:16:16.276Z,69.88
2023-01-08T01:18:44.345Z,69.92
2023-01-08T01:21:17.891Z,69.89
2023-01-08T01:23:45.757Z,70.04
2023-01-08T01:26:16.551Z,70.35
2023-01-08T01:28:44.321Z,70.11
2023-01-08T01:31:13.486Z,69.91
2023-01-08T01:33:41.941Z,70.11
2023-01-08T01:36:11.623Z,70.07
2023-01-08T01:38:43.107Z,69.81
2023-01-08T01:41:24.544Z,69.96
2023-01-08T01:43:53.392Z,69.90
2023-01-08T01:46:40.704Z,69.85
2023-01-08T01:49:18.267Z,70.03
2023-01-08T01:51:52.297Z,70.08
2023-01-08T01:54:20.820Z,69.71
2023-01-08T01:56:49.137Z,69.67
2023-01-08T01:59:17.134Z,69.69
2023-01-08T02:01:45.781Z,69.52
2023-01-08T02:04:16.508Z,69.60
2023-01-08T02:06:56.290Z,69.67
2023-01-08T02:09:46.973Z,69.68
2023-01-08T02:12:23.444Z,69.59
2023-01-08T02:15:14.290Z,69.65
2023-01-08T02:17:58.816Z,69.86
2023-01-08T02:20:55.451Z,69.79
2023-01-08T02:23:48.589Z,69.75
2023-01-08T02:26:22.386Z,70.09
2023-01-08T02:29:09.792Z,70.18
2023-01-08T02:31:40.126Z,70.28
2023-01-08T02:34:08.672Z,70.39
2023-01-08T02:36:45.613Z,70.61
2023-01-08T02:39:20.583Z,70.49
2023-01-08T02:42:03.691Z,70.03
2023-01-08T02:44:37.246Z,69.93
2023-01-08T02:47:06.976Z,70.13
2023-01-08T02:49:37.265Z,70.12
2023-01-08T02:52:06.702Z,69.88
2023-01-08T02:54:35.273Z,69.59
2023-01-08T02:57:08.695Z,69.72
2023-01-08T02:59:37.923Z,69.80
2023-01-08T03:02:06.096Z,69.58
2023-01-08T03:04:38.158Z,69.44
2023-01-08T03:07:06.064Z,69.57
2023-01-08T03:09:34.517Z,69.44
2023-01-08T03:12:04.660Z,69.59
2023-01-08T03:14:40.724Z,69.67
2023-01-08T03:17:22.748Z,69.80
2023-01-08T03:19:54.978Z,69.92
2023-01-08T03:22:23.640Z,70.14
2023-01-08T03:24:53.368Z,70.25
2023-01-08T03:27:29.199Z,70.24
2023-01-08T03:29:58.672Z,70.33
2023-01-08T03:36:48.211Z,70.90
2023-01-08T03:39:22.835Z,70.58
2023-01-08T03:41:51.698Z,70.97
2023-01-08T03:44:19.411Z,71.37
2023-01-08T03:46:52.499Z,71.20
2023-01-08T03:49:21.966Z,71.61
2023-01-08T03:51:49.777Z,71.57
2023-01-08T03:54:20.515Z,71.31
2023-01-08T03:56:48.275Z,71.48
2023-01-08T03:59:16.818Z,71.11
2023-01-08T04:01:44.697Z,71.38
2023-01-08T04:04:12.598Z,71.54
2023-01-08T04:06:40.460Z,71.27
2023-01-08T04:09:08.213Z,71.55
2023-01-08T04:11:36.132Z,71.50
2023-01-08T04:14:03.923Z,71.15
2023-01-08T04:16:31.865Z,71.36
2023-01-08T04:18:59.672Z,71.19
2023-01-08T04:21:27.429Z,71.11
2023-01-08T04:23:55.412Z,71.22
2023-01-08T04:26:23.383Z,71.18
2023-01-08T04:28:51.091Z,70.92
2023-01-08T04:31:18.923Z,70.95
2023-01-08T04:33:46.783Z,71.15
2023-01-08T04:36:14.898Z,71.10
2023-01-08T04:38:42.705Z,71.00
2023-01-08T04:41:10.517Z,70.82
2023-01-08T04:43:38.342Z,71.00
2023-01-08T04:46:07.787Z,71.22
2023-01-08T04:48:36.035Z,71.16
2023-01-08T04:51:04.347Z,71.12
2023-01-08T04:53:34.976Z,71.30
2023-01-08T04:56:04.806Z,71.03
2023-01-08T04:58:34.468Z,71.13
2023-01-08T05:01:10.368Z,71.09
2023-01-08T05:03:38.215Z,71.00
2023-01-08T05:06:07.322Z,70.88
2023-01-08T05:08:35.157Z,70.89
2023-01-08T05:11:03.324Z,71.15
2023-01-08T05:13:31.069Z,70.79
2023-01-08T05:16:00.615Z,70.89
2023-01-08T05:18:29.607Z,70.90
2023-01-08T05:21:02.261Z,70.48
2023-01-08T05:23:30.707Z,70.35
2023-01-08T05:26:02.804Z,70.32
2023-01-08T05:28:30.721Z,70.12
2023-01-08T05:30:58.953Z,70.16
2023-01-08T05:33:26.843Z,69.90
2023-01-08T05:35:55.323Z,69.82
2023-01-08T05:38:23.139Z,69.92
2023-01-08T05:40:54.010Z,70.03
2023-01-08T05:43:21.780Z,70.34
2023-01-08T05:45:49.519Z,70.72
2023-01-08T05:48:17.378Z,70.86
2023-01-08T05:50:45.120Z,70.77
2023-01-08T05:53:12.842Z,70.57
2023-01-08T05:55:40.644Z,70.88
2023-01-08T05:58:08.534Z,70.95
2023-01-08T06:00:36.359Z,71.16
2023-01-08T06:03:04.783Z,70.98
2023-01-08T06:05:33.138Z,71.23
2023-01-08T06:08:01.097Z,70.90
2023-01-08T06:10:28.876Z,70.96
2023-01-08T06:12:56.644Z,70.94
2023-01-08T06:15:24.386Z,70.70
2023-01-08T06:17:52.142Z,70.84
2023-01-08T06:20:19.971Z,70.80
2023-01-08T06:22:47.885Z,70.74
2023-01-08T06:25:15.825Z,70.60
2023-01-08T06:27:43.717Z,70.76
2023-01-08T06:30:11.767Z,70.94
2023-01-08T06:32:39.576Z,70.93
2023-01-08T06:35:07.880Z,70.84
2023-01-08T06:37:35.669Z,70.66
2023-01-08T06:40:03.940Z,70.78
2023-01-08T06:42:31.699Z,70.89
2023-01-08T06:44:59.460Z,70.86
2023-01-08T06:47:27.310Z,70.82
2023-01-08T06:49:54.984Z,70.97
2023-01-08T06:52:22.764Z,70.83
2023-01-08T06:54:50.502Z,70.86
2023-01-08T06:57:18.272Z,70.78
2023-01-08T06:59:46.047Z,70.81
2023-01-08T07:02:14.678Z,70.74
2023-01-08T07:04:42.636Z,70.98
2023-01-08T07:07:15.110Z,70.70
2023-01-08T07:09:42.939Z,70.86
2023-01-08T07:12:14.422Z,70.88
2023-01-08T07:14:42.261Z,70.66
2023-01-08T07:17:10.080Z,70.72
2023-01-08T07:19:38.205Z,70.54
2023-01-08T07:22:05.983Z,70.81
2023-01-08T07:24:33.710Z,70.67
2023-01-08T07:27:01.576Z,70.81
2023-01-08T07:29:29.699Z,70.80
2023-01-08T07:31:57.416Z,70.66
2023-01-08T07:34:25.317Z,70.81
2023-01-08T07:36:53.052Z,70.49
2023-01-08T07:39:20.772Z,70.47
2023-01-08T07:41:48.547Z,70.53
2023-01-08T07:44:16.379Z,70.35
2023-01-08T07:46:44.313Z,70.62
2023-01-08T07:49:12.382Z,70.76
2023-01-08T07:51:40.157Z,70.71
2023-01-08T07:54:08.004Z,70.96
2023-01-08T07:56:36.121Z,70.99
2023-01-08T07:59:03.880Z,71.02
2023-01-08T08:01:31.786Z,71.07
2023-01-08T08:03:59.647Z,70.88
2023-01-08T08:06:27.837Z,70.91
2023-01-08T08:08:57.479Z,70.88
2023-01-08T08:11:25.283Z,70.58
2023-01-08T08:13:54.718Z,70.29
2023-01-08T08:16:23.952Z,70.21
2023-01-08T08:18:51.736Z,70.65
2023-01-08T08:21:19.458Z,70.29
2023-01-08T08:23:47.257Z,70.11
2023-01-08T08:26:14.963Z,70.23
2023-01-08T08:28:42.696Z,70.04
2023-01-08T08:31:10.464Z,70.15
2023-01-08T08:33:38.387Z,69.80
2023-01-08T08:36:07.101Z,69.64
2023-01-08T08:38:37.436Z,69.23
2023-01-08T08:41:05.599Z,68.56
2023-01-08T08:43:33.352Z,68.35
2023-01-08T08:46:01.178Z,68.49
2023-01-08T08:48:29.062Z,68.43
2023-01-08T08:50:59.056Z,68.46
2023-01-08T08:53:27.864Z,68.10
2023-01-08T08:55:58.434Z,68.13
2023-01-08T08:58:26.102Z,68.10
2023-01-08T09:00:53.880Z,67.91
2023-01-08T09:03:21.612Z,67.49
2023-01-08T09:05:49.449Z,66.73
2023-01-08T09:08:17.199Z,66.06
2023-01-08T09:10:45.016Z,65.51
2023-01-08T09:13:13.012Z,65.25
2023-01-08T09:15:40.880Z,65.32
2023-01-08T09:18:08.858Z,66.14
2023-01-08T09:20:36.999Z,65.97
2023-01-08T09:23:04.896Z,65.53
2023-01-08T09:25:32.760Z,65.51
2023-01-08T09:28:05.612Z,65.51
2023-01-08T09:30:34.311Z,65.10
2023-01-08T09:33:03.431Z,65.22
2023-01-08T09:35:32.508Z,65.06
2023-01-08T09:38:00.532Z,64.82
2023-01-08T09:40:32.658Z,65.01
2023-01-08T09:43:02.073Z,65.32
2023-01-08T09:45:32.197Z,64.80
2023-01-08T09:48:03.974Z,64.73
2023-01-08T09:50:33.301Z,64.26
2023-01-08T09:53:01.522Z,64.36
2023-01-08T09:55:31.487Z,64.30
2023-01-08T09:58:02.283Z,64.17
2023-01-08T10:00:33.915Z,64.02
2023-01-08T10:03:01.941Z,64.39
2023-01-08T10:05:29.986Z,64.04
2023-01-08T10:07:57.778Z,63.70
2023-01-08T10:10:30.440Z,63.71
2023-01-08T10:12:58.728Z,63.71
2023-01-08T10:15:26.561Z,63.60
2023-01-08T10:18:00.387Z,63.60
2023-01-08T10:20:30.269Z,63.08
2023-01-08T10:23:11.915Z,62.81
2023-01-08T10:26:00.932Z,62.72
2023-01-08T10:28:36.922Z,62.47
2023-01-08T10:31:08.866Z,62.46
2023-01-08T10:33:44.945Z,62.23
2023-01-08T10:36:16.288Z,61.94
2023-01-08T10:39:04.316Z,61.29
2023-01-08T10:41:37.817Z,61.03
2023-01-08T10:44:07.684Z,60.41
2023-01-08T10:46:43.832Z,60.05
2023-01-08T10:49:25.012Z,59.87
2023-01-08T10:51:53.882Z,60.12
2023-01-08T10:54:41.091Z,60.10
2023-01-08T10:57:26.064Z,60.34
2023-01-08T10:59:54.680Z,60.62
2023-01-08T11:02:30.928Z,60.84
2023-01-08T11:04:59.893Z,60.97
2023-01-08T11:07:28.615Z,61.00
2023-01-08T11:09:56.913Z,60.37
2023-01-08T11:12:27.934Z,60.12
2023-01-08T11:14:56.368Z,59.63
2023-01-08T11:21:54.992Z,58.01
2023-01-08T11:24:29.236Z,57.60
2023-01-08T11:27:01.500Z,56.99
2023-01-08T11:29:37.419Z,56.61
2023-01-08T11:32:09.096Z,55.80
2023-01-08T11:34:55.654Z,56.12
2023-01-08T11:37:29.024Z,55.58
2023-01-08T11:39:57.189Z,55.90
2023-01-08T11:42:46.635Z,55.90
2023-01-08T11:45:23.811Z,55.89
2023-01-08T11:47:58.519Z,55.83
2023-01-08T11:50:33.598Z,56.08
2023-01-08T11:53:17.321Z,55.63
2023-01-08T11:56:09.781Z,56.10
2023-01-08T11:58:40.451Z,55.92
2023-01-08T12:01:33.129Z,56.19
2023-01-08T12:04:47.724Z,56.47
2023-01-08T12:07:43.101Z,56.94
2023-01-08T12:10:28.974Z,57.27
2023-01-08T12:13:23.485Z,57.44
2023-01-08T12:16:10.462Z,57.91
2023-01-08T12:19:03.731Z,58.25
2023-01-08T12:22:04.064Z,58.47
2023-01-08T12:25:06.232Z,58.70
2023-01-08T12:27:57.472Z,59.04
2023-01-08T12:30:51.381Z,59.01
2023-01-08T12:33:40.930Z,59.29
2023-01-08T12:36:11.249Z,59.48
2023-01-08T12:38:44.517Z,59.72
2023-01-08T12:41:14.619Z,59.89
2023-01-08T12:43:50.131Z,60.09
2023-01-08T12:46:18.939Z,60.39
2023-01-08T12:48:51.556Z,60.57
2023-01-08T12:51:25.376Z,60.81
2023-01-08T12:54:22.947Z,60.90
2023-01-08T12:56:56.068Z,60.95
2023-01-08T12:59:46.776Z,61.02
2023-01-08T13:02:51.801Z,61.11
2023-01-08T13:05:19.683Z,60.87
2023-01-08T13:08:02.111Z,60.97
2023-01-08T13:10:40.473Z,60.76
2023-01-08T13:13:32.642Z,60.85
2023-01-08T13:16:17.073Z,60.65
2023-01-08T13:18:59.021Z,60.55
2023-01-08T13:21:44.777Z,60.58
2023-01-08T13:24:33.146Z,60.51
2023-01-08T13:27:19.074Z,60.32
2023-01-08T13:29:48.747Z,60.33
2023-01-08T13:32:48.530Z,60.60
2023-01-08T13:35:16.679Z,60.73
2023-01-08T13:37:46.345Z,61.01
2023-01-08T13:40:36.131Z,60.92
2023-01-08T13:43:07.028Z,61.01
2023-01-08T13:45:36.748Z,61.15
2023-01-08T13:48:04.738Z,61.46
2023-01-08T13:50:46.070Z,61.09
2023-01-08T13:53:14.556Z,61.45
2023-01-08T13:55:45.499Z,61.25
2023-01-08T13:58:19.618Z,61.25
2023-01-08T14:00:50.626Z,61.39
2023-01-08T14:03:35.418Z,61.16
2023-01-08T14:06:26.217Z,61.35
2023-01-08T14:08:56.550Z,61.14
2023-01-08T14:11:29.462Z,61.26
2023-01-08T14:13:57.731Z,61.39
2023-01-08T14:16:25.554Z,61.37
2023-01-08T14:18:54.346Z,61.31
2023-01-08T14:21:22.943Z,61.28
2023-01-08T14:23:52.684Z,61.39
2023-01-08T14:26:24.458Z,61.20
2023-01-08T14:28:53.016Z,61.05
2023-01-08T14:31:22.551Z,60.95
2023-01-08T14:34:30.056Z,60.94
2023-01-08T14:36:58.138Z,60.86
2023-01-08T14:39:32.414Z,61.09
2023-01-08T14:42:29.215Z,60.98
2023-01-08T14:44:59.179Z,61.09
2023-01-08T14:47:52.942Z,61.17
2023-01-08T14:50:24.668Z,61.27
2023-01-08T14:52:59.790Z,61.24
2023-01-08T14:55:35.345Z,61.44
2023-01-08T14:58:03.126Z,61.46
2023-01-08T15:00:31.349Z,61.42
2023-01-08T15:02:59.150Z,61.44
2023-01-08T15:05:32.072Z,61.68
2023-01-08T15:08:21.948Z,61.63
2023-01-08T15:11:06.573Z,61.61
2023-01-08T15:13:40.103Z,61.83
2023-01-08T15:16:11.069Z,61.80
2023-01-08T15:18:47.296Z,61.89
2023-01-08T15:21:19.396Z,62.02
2023-01-08T15:23:49.395Z,62.17
2023-01-08T15:26:17.884Z,62.32
2023-01-08T15:28:49.154Z,62.51
2023-01-08T15:31:32.323Z,62.47
2023-01-08T15:34:00.994Z,62.51
2023-01-08T15:36:28.854Z,62.50
2023-01-08T15:39:00.957Z,62.62
2023-01-08T15:41:55.472Z,62.44
2023-01-08T15:44:24.158Z,62.73
2023-01-08T15:46:52.877Z,62.70
2023-01-08T15:49:20.913Z,62.77
2023-01-08T15:51:50.134Z,62.82
2023-01-08T15:54:25.275Z,62.94
2023-01-08T15:56:53.020Z,63.19
2023-01-08T15:59:20.860Z,63.35
2023-01-08T16:01:48.917Z,63.42
2023-01-08T16:04:16.973Z,63.43
2023-01-08T16:06:44.901Z,63.28
2023-01-08T16:09:12.648Z,63.54
2023-01-08T16:11:40.680Z,63.53
2023-01-08T16:14:08.713Z,63.56
2023-01-08T16:16:36.596Z,63.57
2023-01-08T16:19:04.626Z,63.59
2023-01-08T16:21:32.487Z,63.28
2023-01-08T16:24:00.242Z,63.39
2023-01-08T16:26:28.043Z,63.51
2023-01-08T16:28:55.746Z,63.59
2023-01-08T16:31:24.760Z,63.82
2023-01-08T16:33:52.647Z,63.89
2023-01-08T16:36:20.452Z,63.91
2023-01-08T16:38:49.129Z,64.01
2023-01-08T16:41:16.978Z,64.05
2023-01-08T16:43:45.431Z,64.06
2023-01-08T16:46:17.830Z,63.97
2023-01-08T16:48:46.859Z,63.91
2023-01-08T16:51:16.417Z,63.77
2023-01-08T16:53:44.455Z,63.68
2023-01-08T16:56:12.253Z,63.78
2023-01-08T16:58:40.067Z,63.91
2023-01-08T17:01:09.835Z,64.06
2023-01-08T17:03:38.082Z,64.12
2023-01-08T17:06:07.371Z,64.12
2023-01-08T17:08:40.027Z,64.00
2023-01-08T17:11:14.345Z,63.83
2023-01-08T17:13:42.596Z,63.83
2023-01-08T17:16:12.797Z,63.67
2023-01-08T17:18:41.731Z,63.82
2023-01-08T17:21:11.532Z,63.81
2023-01-08T17:23:39.535Z,63.86
2023-01-08T17:26:11.655Z,64.01
2023-01-08T17:28:39.512Z,63.86
2023-01-08T17:31:08.906Z,63.87
2023-01-08T17:33:37.866Z,63.72
2023-01-08T17:36:15.646Z,63.66
2023-01-08T17:38:43.819Z,63.59
2023-01-08T17:41:31.663Z,63.68
2023-01-08T17:43:59.926Z,63.62
2023-01-08T17:46:28.111Z,63.59
2023-01-08T17:48:56.107Z,63.53
2023-01-08T17:51:24.029Z,63.60
2023-01-08T17:53:51.824Z,63.81
2023-01-08T17:56:19.701Z,63.79
2023-01-08T17:58:50.308Z,63.93
2023-01-08T18:01:19.216Z,64.00
2023-01-08T18:03:47.249Z,63.98
2023-01-08T18:06:15.196Z,64.17
2023-01-08T18:08:43.449Z,64.05
2023-01-08T18:11:11.500Z,63.86
2023-01-08T18:13:39.673Z,63.84
2023-01-08T18:16:10.836Z,63.62
2023-01-08T18:18:39.493Z,63.74
2023-01-08T18:21:07.676Z,63.73
2023-01-08T18:23:35.499Z,63.67
2023-01-08T18:26:07.939Z,63.66
2023-01-08T18:28:36.398Z,63.78
2023-01-08T18:31:12.274Z,63.84
2023-01-08T18:33:40.751Z,63.90
2023-01-08T18:36:12.110Z,64.10
2023-01-08T18:38:42.788Z,64.05
2023-01-08T18:41:32.970Z,63.93
2023-01-08T18:44:01.234Z,64.10
2023-01-08T18:46:29.353Z,64.11
2023-01-08T18:48:57.174Z,64.13
2023-01-08T18:51:27.007Z,64.02
2023-01-08T18:53:56.260Z,63.97
2023-01-08T18:56:29.792Z,64.19
2023-01-08T18:58:58.257Z,64.22
2023-01-08T19:01:27.012Z,64.31
2023-01-08T19:03:55.777Z,64.33
2023-01-08T19:06:23.821Z,64.08
2023-01-08T19:08:52.733Z,63.80
2023-01-08T19:11:21.251Z,63.80
2023-01-08T19:13:49.164Z,63.82
2023-01-08T19:16:18.576Z,63.88
2023-01-08T19:18:46.500Z,63.90
2023-01-08T19:21:17.623Z,63.95
2023-01-08T19:23:47.298Z,63.99
2023-01-08T19:26:16.393Z,64.11
2023-01-08T19:28:44.462Z,64.01
2023-01-08T19:31:15.342Z,63.91
2023-01-08T19:33:44.550Z,63.93
2023-01-08T19:36:15.888Z,63.91
2023-01-08T19:38:44.421Z,64.07
2023-01-08T19:41:31.890Z,64.11
2023-01-08T19:43:59.967Z,63.96
2023-01-08T19:46:28.127Z,64.05
2023-01-08T19:48:59.729Z,63.91
2023-01-08T19:51:28.852Z,64.00
2023-01-08T19:53:57.932Z,64.16
2023-01-08T19:56:25.732Z,64.13
2023-01-08T19:58:55.251Z,64.18
2023-01-08T20:01:25.857Z,63.97
2023-01-08T20:03:54.290Z,63.98
2023-01-08T20:06:24.698Z,64.16
2023-01-08T20:08:56.325Z,64.23
2023-01-08T20:11:24.562Z,64.24
2023-01-08T20:13:52.477Z,64.36
2023-01-08T20:16:21.331Z,64.30
2023-01-08T20:18:49.480Z,64.32
2023-01-08T20:21:23.159Z,64.36
2023-01-08T20:23:59.085Z,64.37
2023-01-08T20:26:28.268Z,64.35
2023-01-08T20:28:57.117Z,64.27
2023-01-08T20:31:29.530Z,64.38
2023-01-08T20:33:58.750Z,64.44
2023-01-08T20:36:29.530Z,64.35
2023-01-08T20:38:59.873Z,64.40
2023-01-08T20:41:28.410Z,64.58
2023-01-08T20:43:56.404Z,65.01
2023-01-08T20:46:28.530Z,65.17
2023-01-08T20:48:59.792Z,65.28
2023-01-08T20:51:27.573Z,65.25
2023-01-08T20:53:55.561Z,65.26
2023-01-08T20:56:23.363Z,65.56
2023-01-08T20:58:51.436Z,65.58
2023-01-08T21:01:22.491Z,65.57
2023-01-08T21:03:54.648Z,65.41
2023-01-08T21:06:25.208Z,65.48
2023-01-08T21:08:54.793Z,65.25
2023-01-08T21:11:23.409Z,65.36
2023-01-08T21:13:51.864Z,65.35
2023-01-08T21:16:25.910Z,65.22
2023-01-08T21:18:54.435Z,65.13
2023-01-08T21:21:24.624Z,65.35
2023-01-08T21:23:52.460Z,65.39
2023-01-08T21:26:21.162Z,65.30
2023-01-08T21:28:50.436Z,65.42
2023-01-08T21:31:21.230Z,65.34
2023-01-08T21:33:49.530Z,65.34
2023-01-08T21:36:19.679Z,65.13
2023-01-08T21:38:48.169Z,65.29
2023-01-08T21:41:42.936Z,65.18
2023-01-08T21:44:32.175Z,65.19
2023-01-08T21:47:01.084Z,65.00
2023-01-08T21:49:29.060Z,65.13
2023-01-08T21:52:15.498Z,64.99
2023-01-08T21:54:43.428Z,65.04
2023-01-08T21:57:11.691Z,64.96
2023-01-08T21:59:39.436Z,65.13
2023-01-08T22:02:07.647Z,65.07
2023-01-08T22:04:35.432Z,65.00
2023-01-08T22:07:03.257Z,65.07
2023-01-08T22:09:31.293Z,65.58
2023-01-08T22:11:59.135Z,65.57
2023-01-08T22:14:26.900Z,65.39
2023-01-08T22:16:55.676Z,64.83
2023-01-08T22:19:23.530Z,64.96
2023-01-08T22:21:51.304Z,65.01
2023-01-08T22:24:19.005Z,65.28
2023-01-08T22:26:48.265Z,65.40
2023-01-08T22:29:16.013Z,65.50
2023-01-08T22:31:43.884Z,65.46
2023-01-08T22:34:17.008Z,65.61
2023-01-08T22:36:45.994Z,65.62
2023-01-08T22:39:13.743Z,65.54
2023-01-08T22:41:43.396Z,65.45
2023-01-08T22:44:12.830Z,65.19
2023-01-08T22:46:41.560Z,65.66
2023-01-08T22:49:13.423Z,65.72
2023-01-08T22:51:43.110Z,65.71
2023-01-08T22:54:14.637Z,65.63
2023-01-08T22:56:42.569Z,65.60
2023-01-08T22:59:10.315Z,65.80
2023-01-08T23:01:38.301Z,65.96
2023-01-08T23:04:06.305Z,65.95
2023-01-08T23:06:34.766Z,65.97
2023-01-08T23:09:02.537Z,65.90
2023-01-08T23:11:30.692Z,66.17
2023-01-08T23:14:00.049Z,66.59
2023-01-08T23:16:27.973Z,66.87
2023-01-08T23:18:56.656Z,66.94
2023-01-08T23:21:25.918Z,67.20
2023-01-08T23:23:54.211Z,66.99
2023-01-08T23:26:27.885Z,66.60
2023-01-08T23:28:57.622Z,66.74
2023-01-08T23:31:28.000Z,66.67
2023-01-08T23:33:56.383Z,67.01
2023-01-08T23:36:24.365Z,66.58
2023-01-08T23:38:54.308Z,66.82
2023-01-08T23:41:31.435Z,66.94
2023-01-08T23:44:02.060Z,67.26
2023-01-08T23:46:29.935Z,67.15
2023-01-08T23:48:57.684Z,67.04
2023-01-08T23:51:25.440Z,67.03
2023-01-08T23:53:53.269Z,66.85
2023-01-08T23:56:21.535Z,66.84
2023-01-08T23:58:49.832Z,67.20
